Terminal Aerodrome Forecast
Issued by NWS

Home | Current Version | Previous Version | Text Only | Print | Product List | Glossary On
Versions: 1 2 3 4 5 6 7 8 9 10 11 12 13 14 15 16 17 18 19 20 21 22 23
000
FTUS46 KMTR 230015 AAA
TAFMRY
TAF AMD
KMRY 230015Z 2300/2324 26009KT P6SM BKN012
     FM230300 24004KT P6SM OVC008
     FM230500 VRB03KT P6SM OVC004
     FM231700 29008KT P6SM SKC=

USA.gov is the U.S. government's official web portal to all federal, state and local government web resources and services.